PATK/TKA METAR and TAF weather

Enter ICAO airport designator
Station Type Date Time Source
PATK METAR 2019/10/15 07:53 UTC NOAA

PATK 150753Z AUTO 36004KT 10SM CLR 01/M11 A2942 RMK AO2 SLP967 T00061111 TSNO $


Station Type Date Time Source
PATK Decoded METAR 2019/10/15 07:53 UTC NOAA

TALKEETNA AIRPORT, AK, United States (PATK) 62-19N 150-06W 109M
Oct 15, 2019 - 03:53 AM EDT / 2019.10.15 0753 UTC
Wind: from the N (360 degrees) at 5 MPH (4 KT):0
Visibility: 10 mile(s):0
Sky conditions: clear
Temperature: 33.1 F (0.6 C)
Windchill: 28 F (-2 C):1
Dew Point: 12.0 F (-11.1 C)
Relative Humidity: 41%
Pressure (altimeter): 29.42 in. Hg (996 hPa)
ob: PATK 150753Z AUTO 36004KT 10SM CLR 01/M11 A2942 RMK AO2 SLP967 T00061111 TSNO
cycle: 8

Station Type Date Time Source
PATK TAF 2019/10/15 06:30 UTC NOAA

TAF PATK 150527Z 1506/1606 03007KT P6SM SKC

Example: see airport list